createdAt,value
2018-08-11T00:01:07.780Z,79.52
2018-08-11T00:03:36.337Z,80.29
2018-08-11T00:06:04.944Z,81.09
2018-08-11T00:08:33.467Z,80.41
2018-08-11T00:11:02.036Z,79.11
2018-08-11T00:13:30.551Z,81.21
2018-08-11T00:15:59.165Z,81.92
2018-08-11T00:18:27.696Z,81.33
2018-08-11T00:20:56.283Z,79.10
2018-08-11T00:23:24.844Z,78.33
2018-08-11T00:25:53.430Z,79.59
2018-08-11T00:28:23.048Z,80.33
2018-08-11T00:30:54.412Z,81.12
2018-08-11T00:33:22.982Z,81.59
2018-08-11T00:35:51.801Z,81.70
2018-08-11T00:38:20.331Z,80.60
2018-08-11T00:40:49.024Z,81.06
2018-08-11T00:43:17.607Z,81.12
2018-08-11T00:45:46.380Z,80.82
2018-08-11T00:48:15.174Z,80.37
2018-08-11T00:50:43.942Z,80.12
2018-08-11T00:53:12.626Z,79.12
2018-08-11T00:55:41.328Z,80.02
2018-08-11T00:58:09.952Z,79.59
2018-08-11T01:00:38.576Z,79.82
2018-08-11T01:03:07.164Z,78.70
2018-08-11T01:05:35.873Z,79.36
2018-08-11T01:08:04.448Z,79.19
2018-08-11T01:10:33.075Z,79.77
2018-08-11T01:13:01.604Z,79.85
2018-08-11T01:15:30.214Z,81.12
2018-08-11T01:17:58.778Z,79.48
2018-08-11T01:20:27.423Z,79.87
2018-08-11T01:22:55.958Z,81.50
2018-08-11T01:25:24.856Z,82.03
2018-08-11T01:27:53.408Z,81.82
2018-08-11T01:30:22.820Z,82.18
2018-08-11T01:32:51.374Z,81.13
2018-08-11T01:35:19.997Z,81.19
2018-08-11T01:37:48.579Z,81.70
2018-08-11T01:40:17.739Z,82.02
2018-08-11T01:42:47.413Z,82.87
2018-08-11T01:45:16.613Z,82.49
2018-08-11T01:47:45.484Z,82.73
2018-08-11T01:50:15.184Z,82.21
2018-08-11T01:52:45.081Z,82.86
2018-08-11T01:55:15.249Z,83.78
2018-08-11T01:57:43.953Z,84.12
2018-08-11T02:00:14.048Z,83.46
2018-08-11T02:02:42.755Z,83.26
2018-08-11T02:05:12.344Z,82.84
2018-08-11T02:07:42.084Z,83.30
2018-08-11T02:10:15.701Z,83.85
2018-08-11T02:12:44.683Z,84.55
2018-08-11T02:15:14.053Z,82.71
2018-08-11T02:17:42.612Z,83.26
2018-08-11T02:20:13.503Z,82.39
2018-08-11T02:22:43.115Z,81.87
2018-08-11T02:25:11.720Z,83.72
2018-08-11T02:27:40.489Z,84.25
2018-08-11T02:30:11.261Z,83.49
2018-08-11T02:32:40.004Z,83.03
2018-08-11T02:35:09.164Z,83.68
2018-08-11T02:37:37.716Z,84.13
2018-08-11T02:40:07.456Z,85.29
2018-08-11T02:42:36.277Z,84.67
2018-08-11T02:45:05.393Z,84.69
2018-08-11T02:47:34.128Z,84.78
2018-08-11T02:50:02.705Z,86.33
2018-08-11T02:52:31.272Z,84.79
2018-08-11T02:55:00.165Z,84.28
2018-08-11T02:57:28.805Z,84.30
2018-08-11T02:59:57.324Z,83.50
2018-08-11T03:02:25.956Z,83.58
2018-08-11T03:04:55.200Z,84.09
2018-08-11T03:07:23.773Z,82.99
2018-08-11T03:09:52.321Z,82.85
2018-08-11T03:12:20.872Z,82.83
2018-08-11T03:14:49.395Z,84.36
2018-08-11T03:17:17.989Z,84.47
2018-08-11T03:19:46.568Z,83.87
2018-08-11T03:22:15.164Z,85.08
2018-08-11T03:24:43.693Z,82.85
2018-08-11T03:27:12.237Z,82.42
2018-08-11T03:29:40.766Z,82.35
2018-08-11T03:32:09.359Z,83.93
2018-08-11T03:34:44.377Z,83.67
2018-08-11T03:37:12.944Z,82.64
2018-08-11T03:39:41.461Z,81.97
2018-08-11T03:42:10.051Z,82.43
2018-08-11T03:44:38.572Z,81.97
2018-08-11T03:47:07.160Z,83.56
2018-08-11T03:49:35.688Z,84.21
2018-08-11T03:52:04.280Z,84.42
2018-08-11T03:54:32.825Z,83.71
2018-08-11T03:57:01.416Z,83.50
2018-08-11T03:59:29.928Z,83.14
2018-08-11T04:01:58.484Z,81.99
2018-08-11T04:04:27.036Z,82.07
2018-08-11T04:06:55.730Z,82.70
2018-08-11T04:09:24.289Z,80.95
2018-08-11T04:11:52.809Z,80.76
2018-08-11T04:14:21.356Z,82.23
2018-08-11T04:16:49.877Z,82.46
2018-08-11T04:19:18.444Z,82.77
2018-08-11T04:21:47.160Z,81.99
2018-08-11T04:24:15.734Z,82.38
2018-08-11T04:26:44.263Z,81.94
2018-08-11T04:29:12.904Z,81.04
2018-08-11T04:31:41.421Z,81.83
2018-08-11T04:34:09.986Z,81.77
2018-08-11T04:36:38.512Z,81.16
2018-08-11T04:39:08.677Z,81.36
2018-08-11T04:41:37.876Z,82.24
2018-08-11T04:44:06.449Z,82.04
2018-08-11T04:46:34.975Z,81.43
2018-08-11T04:49:03.564Z,80.61
2018-08-11T04:51:32.098Z,79.66
2018-08-11T04:54:01.015Z,80.10
2018-08-11T04:56:29.559Z,82.31
2018-08-11T04:58:58.177Z,84.70
2018-08-11T05:01:26.708Z,84.29
2018-08-11T05:03:55.940Z,85.10
2018-08-11T05:06:24.480Z,83.68
2018-08-11T05:08:53.033Z,83.15
2018-08-11T05:11:21.611Z,82.90
2018-08-11T05:13:50.280Z,82.32
2018-08-11T05:16:18.805Z,81.77
2018-08-11T05:18:47.341Z,81.61
2018-08-11T05:21:15.869Z,81.07
2018-08-11T05:23:44.401Z,79.71
2018-08-11T05:26:12.963Z,80.09
2018-08-11T05:28:41.815Z,80.10
2018-08-11T05:31:10.328Z,81.76
2018-08-11T05:33:38.899Z,83.50
2018-08-11T05:36:07.964Z,83.14
2018-08-11T05:38:36.856Z,83.01
2018-08-11T05:41:05.443Z,81.79
2018-08-11T05:43:34.198Z,81.70
2018-08-11T05:46:02.820Z,80.68
2018-08-11T05:48:31.400Z,80.64
2018-08-11T05:50:59.916Z,79.79
2018-08-11T05:53:35.438Z,80.02
2018-08-11T05:56:04.230Z,80.65
2018-08-11T05:58:32.781Z,81.48
2018-08-11T06:01:01.336Z,80.18
2018-08-11T06:03:29.848Z,81.26
2018-08-11T06:05:58.385Z,78.24
2018-08-11T06:08:26.899Z,75.92
2018-08-11T06:10:56.169Z,75.70
2018-08-11T06:13:24.694Z,75.47
2018-08-11T06:15:53.244Z,75.05
2018-08-11T06:18:21.755Z,75.35
2018-08-11T06:20:50.292Z,74.08
2018-08-11T06:23:18.828Z,73.83
2018-08-11T06:25:47.727Z,73.68
2018-08-11T06:28:16.261Z,73.38
2018-08-11T06:30:45.096Z,74.34
2018-08-11T06:33:13.625Z,73.43
2018-08-11T06:35:42.542Z,73.48
2018-08-11T06:38:11.830Z,73.91
2018-08-11T06:40:40.512Z,73.14
2018-08-11T06:43:08.997Z,73.23
2018-08-11T06:45:37.672Z,73.18
2018-08-11T06:48:06.898Z,73.34
2018-08-11T06:50:35.484Z,72.93
2018-08-11T06:53:04.048Z,73.45
2018-08-11T06:55:32.953Z,73.61
2018-08-11T06:58:01.598Z,73.89
2018-08-11T07:00:31.888Z,73.00
2018-08-11T07:03:04.171Z,72.75
2018-08-11T07:05:34.618Z,72.97
2018-08-11T07:08:03.207Z,73.16
2018-08-11T07:10:31.740Z,73.08
2018-08-11T07:13:00.288Z,73.96
2018-08-11T07:15:28.861Z,74.97
2018-08-11T07:17:57.673Z,74.71
2018-08-11T07:20:26.304Z,74.34
2018-08-11T07:22:54.792Z,75.04
2018-08-11T07:25:23.347Z,75.18
2018-08-11T07:27:51.848Z,74.65
2018-08-11T07:30:20.459Z,74.28
2018-08-11T07:32:48.941Z,73.93
2018-08-11T07:35:17.539Z,72.67
2018-08-11T07:37:46.085Z,72.13
2018-08-11T07:40:14.643Z,72.72
2018-08-11T07:42:43.197Z,71.58
2018-08-11T07:45:11.739Z,71.68
2018-08-11T07:47:40.453Z,70.71
2018-08-11T07:50:09.027Z,70.75
2018-08-11T07:52:37.908Z,70.29
2018-08-11T07:55:06.732Z,69.21
2018-08-11T07:57:35.338Z,69.33
2018-08-11T08:00:03.936Z,69.38
2018-08-11T08:02:32.484Z,67.97
2018-08-11T08:05:03.961Z,67.05
2018-08-11T08:07:32.525Z,67.49
2018-08-11T08:10:01.146Z,66.21
2018-08-11T08:12:29.903Z,66.19
2018-08-11T08:14:59.100Z,66.21
2018-08-11T08:17:28.132Z,64.11
2018-08-11T08:19:57.708Z,65.44
2018-08-11T08:22:27.613Z,65.21
2018-08-11T08:24:56.162Z,64.81
2018-08-11T08:27:24.881Z,64.40
2018-08-11T08:29:54.241Z,64.68
2018-08-11T08:32:23.065Z,62.97
2018-08-11T08:34:51.608Z,63.04
2018-08-11T08:37:20.181Z,63.96
2018-08-11T08:39:49.324Z,63.86
2018-08-11T08:42:17.990Z,64.02
2018-08-11T08:44:46.513Z,64.10
2018-08-11T08:47:15.581Z,63.04
2018-08-11T08:49:44.105Z,60.78
2018-08-11T08:52:12.701Z,60.64
2018-08-11T08:54:41.222Z,60.78
2018-08-11T08:57:09.778Z,59.94
2018-08-11T08:59:39.928Z,59.62
2018-08-11T09:02:08.556Z,60.21
2018-08-11T09:04:37.051Z,60.00
2018-08-11T09:07:05.614Z,59.44
2018-08-11T09:09:34.116Z,59.30
2018-08-11T09:12:02.709Z,59.21
2018-08-11T09:14:31.202Z,58.55
2018-08-11T09:16:59.757Z,57.72
2018-08-11T09:19:28.285Z,59.39
2018-08-11T09:21:56.840Z,58.01
2018-08-11T09:24:25.365Z,58.09
2018-08-11T09:26:53.883Z,60.24
2018-08-11T09:29:22.441Z,58.47
2018-08-11T09:31:50.992Z,59.44
2018-08-11T09:34:19.548Z,57.92
2018-08-11T09:36:48.064Z,57.20
2018-08-11T09:39:16.688Z,56.21
2018-08-11T09:41:45.775Z,55.10
2018-08-11T09:44:14.585Z,55.57
2018-08-11T09:46:43.203Z,53.82
2018-08-11T09:49:11.891Z,55.26
2018-08-11T09:51:40.447Z,53.57
2018-08-11T09:54:12.848Z,53.12
2018-08-11T09:56:41.684Z,52.73
2018-08-11T09:59:10.277Z,50.85
2018-08-11T10:01:43.060Z,49.88
2018-08-11T10:04:11.611Z,50.68
2018-08-11T10:06:40.392Z,49.23
2018-08-11T10:09:11.052Z,49.47
2018-08-11T10:11:39.705Z,49.55
2018-08-11T10:14:08.965Z,49.86
2018-08-11T10:16:47.676Z,49.13
2018-08-11T10:19:16.670Z,48.57
2018-08-11T10:21:45.184Z,48.23
2018-08-11T10:24:13.721Z,47.48
2018-08-11T10:26:42.309Z,44.33
2018-08-11T10:29:10.841Z,46.38
2018-08-11T10:31:39.392Z,44.70
2018-08-11T10:34:09.418Z,44.52
2018-08-11T10:36:38.049Z,44.91
2018-08-11T10:39:09.815Z,46.46
2018-08-11T10:41:38.393Z,47.10
2018-08-11T10:44:07.008Z,47.38
2018-08-11T10:46:35.543Z,45.94
2018-08-11T10:49:04.672Z,44.22
2018-08-11T10:51:33.184Z,43.47
2018-08-11T10:54:02.000Z,45.95
2018-08-11T10:56:31.738Z,46.48
2018-08-11T10:59:01.609Z,45.30
2018-08-11T11:01:30.336Z,44.65
2018-08-11T11:04:00.267Z,46.57
2018-08-11T11:06:30.388Z,44.62
2018-08-11T11:08:59.055Z,45.89
2018-08-11T11:11:27.697Z,45.50
2018-08-11T11:13:56.633Z,45.55
2018-08-11T11:16:35.323Z,46.36
2018-08-11T11:19:04.100Z,47.04
2018-08-11T11:21:32.736Z,45.95
2018-08-11T11:24:06.217Z,45.42
2018-08-11T11:26:34.884Z,43.86
2018-08-11T11:29:03.459Z,44.44
2018-08-11T11:31:34.572Z,44.42
2018-08-11T11:34:04.162Z,43.60
2018-08-11T11:36:35.605Z,44.70
2018-08-11T11:39:13.592Z,44.35
2018-08-11T11:41:42.386Z,43.12
2018-08-11T11:44:10.911Z,40.88
2018-08-11T11:46:39.461Z,41.08
2018-08-11T11:49:08.017Z,41.24
2018-08-11T11:51:36.583Z,41.48
2018-08-11T11:54:05.121Z,40.04
2018-08-11T11:56:34.927Z,41.64
2018-08-11T11:59:03.512Z,40.67
2018-08-11T12:01:32.086Z,41.32
2018-08-11T12:04:01.609Z,41.79
2018-08-11T12:06:30.176Z,41.06
2018-08-11T12:08:58.729Z,42.61
2018-08-11T12:11:27.252Z,42.62
2018-08-11T12:13:55.823Z,42.60
2018-08-11T12:16:24.369Z,41.19
2018-08-11T12:18:53.056Z,41.42
2018-08-11T12:21:21.580Z,42.89
2018-08-11T12:23:54.649Z,41.91
2018-08-11T12:26:23.205Z,41.39
2018-08-11T12:28:56.638Z,41.93
2018-08-11T12:31:25.250Z,41.58
2018-08-11T12:34:00.178Z,42.13
2018-08-11T12:36:29.058Z,42.20
2018-08-11T12:38:57.633Z,42.81
2018-08-11T12:41:26.165Z,41.57
2018-08-11T12:43:54.829Z,41.24
2018-08-11T12:46:26.172Z,42.08
2018-08-11T12:48:54.864Z,42.57
2018-08-11T12:51:23.405Z,40.54
2018-08-11T12:53:51.976Z,39.84
2018-08-11T12:56:20.802Z,37.00
2018-08-11T12:58:49.388Z,39.22
2018-08-11T13:01:17.969Z,39.62
2018-08-11T13:03:46.701Z,39.84
2018-08-11T13:06:15.593Z,40.56
2018-08-11T13:08:44.192Z,39.81
2018-08-11T13:11:13.736Z,39.05
2018-08-11T13:13:42.488Z,38.63
2018-08-11T13:16:12.252Z,36.92
2018-08-11T13:18:41.242Z,37.18
2018-08-11T13:21:09.856Z,37.76
2018-08-11T13:23:39.610Z,37.49
2018-08-11T13:26:08.241Z,37.28
2018-08-11T13:28:36.793Z,36.49
2018-08-11T13:31:05.439Z,37.19
2018-08-11T13:33:34.000Z,38.10
2018-08-11T13:36:03.332Z,39.76
2018-08-11T13:38:32.702Z,40.02
2018-08-11T13:41:02.702Z,40.57
2018-08-11T13:43:32.305Z,39.65
2018-08-11T13:46:01.720Z,39.34
2018-08-11T13:48:30.340Z,39.29
2018-08-11T13:51:00.010Z,38.69
2018-08-11T13:53:28.570Z,39.11
2018-08-11T13:55:57.385Z,39.31
2018-08-11T13:58:26.513Z,38.80
2018-08-11T14:00:55.113Z,38.86
2018-08-11T14:03:25.834Z,37.34
2018-08-11T14:06:01.585Z,37.05
2018-08-11T14:08:34.769Z,37.01
2018-08-11T14:11:09.820Z,36.75
2018-08-11T14:13:43.422Z,36.41
2018-08-11T14:16:16.207Z,35.48
2018-08-11T14:18:49.930Z,36.04
2018-08-11T14:21:25.523Z,36.37
2018-08-11T14:24:03.596Z,36.24
2018-08-11T14:26:40.358Z,35.99
2018-08-11T14:29:15.334Z,35.84
2018-08-11T14:31:46.926Z,37.32
2018-08-11T14:34:22.164Z,37.14
2018-08-11T14:36:58.226Z,36.23
2018-08-11T14:39:32.940Z,35.89
2018-08-11T14:42:08.082Z,35.53
2018-08-11T14:44:46.328Z,37.02
2018-08-11T14:47:24.197Z,36.22
2018-08-11T14:50:04.453Z,37.83
2018-08-11T14:52:40.610Z,37.93
2018-08-11T14:55:21.577Z,36.69
2018-08-11T14:57:58.143Z,37.08
2018-08-11T15:00:41.070Z,37.01
2018-08-11T15:03:23.591Z,37.04
2018-08-11T15:06:05.283Z,36.26
2018-08-11T15:08:44.757Z,36.87
2018-08-11T15:11:31.231Z,37.10
2018-08-11T15:14:17.687Z,37.00
2018-08-11T15:16:50.689Z,37.70
2018-08-11T15:19:30.418Z,37.56
2018-08-11T15:22:06.234Z,37.79
2018-08-11T15:24:43.202Z,38.31
2018-08-11T15:27:18.773Z,38.54
2018-08-11T15:29:57.899Z,38.68
2018-08-11T15:32:35.823Z,38.88
2018-08-11T15:35:13.530Z,38.10
2018-08-11T15:37:53.507Z,38.09
2018-08-11T15:40:29.993Z,37.74
2018-08-11T15:43:05.893Z,37.92
2018-08-11T15:45:42.189Z,36.45
2018-08-11T15:48:17.853Z,36.99
2018-08-11T15:50:55.436Z,37.03
2018-08-11T15:53:31.409Z,36.96
2018-08-11T15:56:09.486Z,37.16
2018-08-11T15:58:46.542Z,37.46
2018-08-11T16:01:15.698Z,37.63
2018-08-11T16:03:44.265Z,38.87
2018-08-11T16:06:12.830Z,38.30
2018-08-11T16:08:52.270Z,37.68
2018-08-11T16:11:27.286Z,37.72
2018-08-11T16:14:04.384Z,38.09
2018-08-11T16:16:43.824Z,36.74
2018-08-11T16:19:26.883Z,37.02
2018-08-11T16:22:02.853Z,37.66
2018-08-11T16:24:44.591Z,38.24
2018-08-11T16:27:20.225Z,39.25
2018-08-11T16:29:59.627Z,39.80
2018-08-11T16:32:36.028Z,38.87
2018-08-11T16:35:11.125Z,38.48
2018-08-11T16:40:50.495Z,38.06
2018-08-11T16:43:27.048Z,37.77
2018-08-11T16:46:04.484Z,38.15
2018-08-11T16:48:43.583Z,37.57
2018-08-11T16:51:20.394Z,37.54
2018-08-11T16:53:59.335Z,37.37
2018-08-11T16:56:33.790Z,37.29
2018-08-11T16:59:07.708Z,38.52
2018-08-11T17:01:41.239Z,37.54
2018-08-11T17:04:17.963Z,38.20
2018-08-11T17:06:56.411Z,38.27
2018-08-11T17:09:35.513Z,37.88
2018-08-11T17:12:20.418Z,37.36
2018-08-11T17:14:58.945Z,37.53
2018-08-11T17:17:34.396Z,37.35
2018-08-11T17:20:15.513Z,37.88
2018-08-11T17:22:52.987Z,37.86
2018-08-11T17:25:29.514Z,38.49
2018-08-11T17:28:04.191Z,38.38
2018-08-11T17:30:45.606Z,38.86
2018-08-11T17:33:22.602Z,39.52
2018-08-11T17:35:57.387Z,40.16
2018-08-11T17:38:31.162Z,39.63
2018-08-11T17:41:09.810Z,39.25
2018-08-11T17:43:54.023Z,39.63
2018-08-11T17:46:37.602Z,39.08
2018-08-11T17:49:20.209Z,38.53
2018-08-11T17:51:59.285Z,39.49
2018-08-11T17:54:36.685Z,39.97
2018-08-11T17:57:12.506Z,39.55
2018-08-11T17:59:52.409Z,39.45
2018-08-11T18:02:34.051Z,39.27
2018-08-11T18:05:14.126Z,40.55
2018-08-11T18:07:48.241Z,40.62
2018-08-11T18:10:23.906Z,40.06
2018-08-11T18:13:08.334Z,40.47
2018-08-11T18:15:41.879Z,40.83
2018-08-11T18:18:21.833Z,40.72
2018-08-11T18:21:03.568Z,40.51
2018-08-11T18:23:46.414Z,40.70
2018-08-11T18:26:22.949Z,42.04
2018-08-11T18:28:58.271Z,42.33
2018-08-11T18:31:32.149Z,42.56
2018-08-11T18:34:00.688Z,43.82
2018-08-11T18:36:30.591Z,45.59
2018-08-11T18:39:04.722Z,45.80
2018-08-11T18:41:36.650Z,45.14
2018-08-11T18:44:10.370Z,45.13
2018-08-11T18:46:43.343Z,44.98
2018-08-11T18:49:17.464Z,45.33
2018-08-11T18:51:49.930Z,46.99
2018-08-11T18:54:23.762Z,47.58
2018-08-11T18:56:55.851Z,48.58
2018-08-11T18:59:28.684Z,48.30
2018-08-11T19:02:02.694Z,49.25
2018-08-11T19:04:35.918Z,50.69
2018-08-11T19:07:16.793Z,49.67
2018-08-11T19:09:50.226Z,49.71
2018-08-11T19:12:24.680Z,49.81
2018-08-11T19:14:53.349Z,51.62
2018-08-11T19:17:21.913Z,51.20
2018-08-11T19:19:50.482Z,51.79
2018-08-11T19:22:19.009Z,54.08
2018-08-11T19:24:47.580Z,56.40
2018-08-11T19:27:16.153Z,58.35
2018-08-11T19:29:51.498Z,61.32
2018-08-11T19:32:25.188Z,61.60
2018-08-11T19:35:00.733Z,63.15
2018-08-11T19:37:29.735Z,63.89
2018-08-11T19:40:00.186Z,64.83
2018-08-11T19:42:29.428Z,65.88
2018-08-11T19:44:57.988Z,66.32
2018-08-11T19:47:26.685Z,68.96
2018-08-11T19:49:55.321Z,68.55
2018-08-11T19:52:23.869Z,68.40
2018-08-11T19:54:52.452Z,66.58
2018-08-11T19:57:21.097Z,68.50
2018-08-11T19:59:49.697Z,68.46
2018-08-11T20:02:18.272Z,67.29
2018-08-11T20:04:46.864Z,66.46
2018-08-11T20:07:15.462Z,65.69
2018-08-11T20:09:44.041Z,66.83
2018-08-11T20:12:12.620Z,66.41
2018-08-11T20:14:41.433Z,66.79
2018-08-11T20:17:10.644Z,65.81
2018-08-11T20:19:39.638Z,65.79
2018-08-11T20:22:19.968Z,66.93
2018-08-11T20:24:48.768Z,68.16
2018-08-11T20:27:17.796Z,67.82
2018-08-11T20:29:46.592Z,68.87
2018-08-11T20:32:15.969Z,68.78
2018-08-11T20:34:44.753Z,69.83
2018-08-11T20:37:13.768Z,68.68
2018-08-11T20:39:42.978Z,67.68
2018-08-11T20:42:13.663Z,68.51
2018-08-11T20:44:42.268Z,68.35
2018-08-11T20:47:10.896Z,68.46
2018-08-11T20:49:39.491Z,70.36
2018-08-11T20:52:10.298Z,70.66
2018-08-11T20:54:42.881Z,70.14
2018-08-11T20:57:12.808Z,69.15
2018-08-11T20:59:41.351Z,70.88
2018-08-11T21:02:10.208Z,72.79
2018-08-11T21:04:38.929Z,70.84
2018-08-11T21:07:07.485Z,71.62
2018-08-11T21:09:39.685Z,73.95
2018-08-11T21:12:09.149Z,73.40
2018-08-11T21:14:37.752Z,72.80
2018-08-11T21:17:06.910Z,71.23
2018-08-11T21:19:35.458Z,71.09
2018-08-11T21:22:04.334Z,71.55
2018-08-11T21:24:32.886Z,70.40
2018-08-11T21:27:03.001Z,74.37
2018-08-11T21:29:31.636Z,74.09
2018-08-11T21:32:01.962Z,75.52
2018-08-11T21:34:30.559Z,76.12
2018-08-11T21:37:01.672Z,74.91
2018-08-11T21:39:30.204Z,74.67
2018-08-11T21:41:58.760Z,71.85
2018-08-11T21:44:27.304Z,70.53
2018-08-11T21:46:55.869Z,71.95
2018-08-11T21:49:24.455Z,73.33
2018-08-11T21:51:53.112Z,74.12
2018-08-11T21:54:21.677Z,72.70
2018-08-11T21:56:50.320Z,75.65
2018-08-11T21:59:18.903Z,76.79
2018-08-11T22:01:47.490Z,76.10
2018-08-11T22:04:16.048Z,76.25
2018-08-11T22:06:47.159Z,75.00
2018-08-11T22:09:15.980Z,72.63
2018-08-11T22:11:49.464Z,72.60
2018-08-11T22:14:17.972Z,72.67
2018-08-11T22:16:46.856Z,73.84
2018-08-11T22:19:18.701Z,73.30
2018-08-11T22:21:47.288Z,72.57
2018-08-11T22:24:20.343Z,73.40
2018-08-11T22:26:48.973Z,73.40
2018-08-11T22:29:17.625Z,74.05
2018-08-11T22:31:48.931Z,73.79
2018-08-11T22:34:18.669Z,73.83
2018-08-11T22:36:47.228Z,74.41
2018-08-11T22:39:15.773Z,75.85
2018-08-11T22:41:44.327Z,75.91
2018-08-11T22:44:13.096Z,77.98
2018-08-11T22:46:41.669Z,76.64
2018-08-11T22:49:11.485Z,75.26
2018-08-11T22:51:41.105Z,74.26
2018-08-11T22:54:09.664Z,75.27
2018-08-11T22:56:38.209Z,75.93
2018-08-11T22:59:06.841Z,76.50
2018-08-11T23:01:38.626Z,73.63
2018-08-11T23:04:07.224Z,72.99
2018-08-11T23:06:35.776Z,74.84
2018-08-11T23:09:06.191Z,74.35
2018-08-11T23:11:34.859Z,74.86
2018-08-11T23:14:04.569Z,74.16
2018-08-11T23:16:34.050Z,76.21
2018-08-11T23:19:02.700Z,76.99
2018-08-11T23:21:31.230Z,78.46
2018-08-11T23:23:59.909Z,78.66
2018-08-11T23:26:29.184Z,77.92
2018-08-11T23:28:57.801Z,77.26
2018-08-11T23:31:26.427Z,77.17
2018-08-11T23:33:54.984Z,75.56
2018-08-11T23:36:23.525Z,76.16
2018-08-11T23:38:52.093Z,76.12
2018-08-11T23:41:20.620Z,74.82
2018-08-11T23:43:49.197Z,75.80
2018-08-11T23:46:17.761Z,78.04
2018-08-11T23:48:46.364Z,77.74
2018-08-11T23:51:14.963Z,76.86
2018-08-11T23:53:43.591Z,77.09
2018-08-11T23:56:12.223Z,76.31
2018-08-11T23:58:41.514Z,77.37
